Ever Ursula — 3FCB9 — position and weather

sailwx.info

Track history (hours):
 
Tides and Currents Weather Stations Pressure Air Temp Water Temp Dewpoint Dewpoint Depression Visibility Wind Speed Wind Dir Waves Ship Positions

Ever Ursula

Last reported at 2017-Nov-18 15:40 UTC. Time now 2017-Nov-21 19:32 UTC.
Position N 21°47' E 114°17'.

Type: Ship (hazmat cat D). MMSI: 357737000.

Date/timePositionNaut miles runAvg speedWind from/ knotsBaromVisibWave heightAir tempDewpointWater temp
2017-Nov-18 15:40N 21°47' E 114°17'214.3
2017-Nov-18 15:30N 21°49' E 114°17'714.3
2017-Nov-18 15:00N 21°56' E 114°20'714.5
2017-Nov-18 14:30N 22°02' E 114°24'611.7
2017-Nov-18 14:00N 22°06' E 114°20'611.6
2017-Nov-18 13:29N 22°07' E 114°13'611.2
2017-Nov-18 12:58N 22°12' E 114°10'510.3
2017-Nov-18 12:30N 22°15' E 114°07'711.9
2017-Nov-18 11:55N 22°21' E 114°03'611.8
2017-Nov-18 11:26N 22°21' E 113°58'4 9.8
2017-Nov-18 11:00N 22°23' E 113°54'2 4.9
2017-Nov-18 10:30N 22°25' E 113°53'2 3.3
2017-Nov-18 10:00N 22°27' E 113°54'0 0.2
2017-Nov-18 09:30N 22°27' E 113°53'0 0.0
2017-Nov-18 09:00N 22°27' E 113°53'0 0.0
2017-Nov-18 08:29N 22°27' E 113°53'0 0.0
2017-Nov-18 07:59N 22°27' E 113°53'0 0.0
2017-Nov-18 07:29N 22°27' E 113°53'0 0.0
2017-Nov-18 06:59N 22°27' E 113°53'0 0.0
2017-Nov-18 06:29N 22°27' E 113°53'0 0.0
2017-Nov-18 05:59N 22°27' E 113°53'0 0.0
2017-Nov-18 05:29N 22°27' E 113°53'0 0.0
2017-Nov-18 04:59N 22°27' E 113°53'0 0.0
2017-Nov-18 04:29N 22°27' E 113°53'0 0.0
2017-Nov-18 03:59N 22°27' E 113°53'0 0.0
2017-Nov-18 03:29N 22°27' E 113°53'0 0.0
2017-Nov-18 02:59N 22°27' E 113°53'0 0.0
2017-Nov-18 02:29N 22°27' E 113°53'0 0.0
2017-Nov-18 01:59N 22°27' E 113°53'0 0.0
2017-Nov-18 01:29N 22°27' E 113°53'0 0.0
2017-Nov-18 00:59N 22°27' E 113°53'0 0.0
2017-Nov-18 00:29N 22°27' E 113°53'0 0.0
2017-Nov-17 23:59N 22°27' E 113°53'0 0.0
2017-Nov-17 23:29N 22°27' E 113°53'0 0.3
2017-Nov-17 23:00N 22°27' E 113°53'3 5.9
2017-Nov-17 22:30N 22°24' E 113°54'4 8.3
2017-Nov-17 22:00N 22°21' E 113°57'611.6
2017-Nov-17 21:29N 22°21' E 114°03'611.2
2017-Nov-17 20:58N 22°16' E 114°07'710.2
2017-Nov-17 20:18N 22°11' E 114°11'2 7.8
2017-Nov-17 20:00N 22°10' E 114°13'3 5.9
2017-Nov-17 19:30N 22°09' E 114°16'3 6.7
2017-Nov-17 18:59N 22°08' E 114°20'4 9.0
2017-Nov-17 18:30N 22°08' E 114°25'4 8.7
2017-Nov-17 18:00N 22°08' E 114°29'4 9.0
2017-Nov-17 17:30N 22°08' E 114°34'4 8.9
2017-Nov-17 17:00N 22°07' E 114°39'4 8.8
2017-Nov-17 16:30N 22°07' E 114°44'4 8.9
2017-Nov-17 16:00N 22°08' E 114°48'4 8.7
2017-Nov-17 15:30N 22°09' E 114°53'4 8.6
2017-Nov-17 14:59N 22°10' E 114°57'4 8.6
2017-Nov-17 14:30N 22°11' E 115°02'4 8.6
2017-Nov-17 14:00N 22°12' E 115°06'4 8.8
2017-Nov-17 13:30N 22°14' E 115°11'4 8.9
2017-Nov-17 13:00N 22°16' E 115°15'5 9.1
2017-Nov-17 12:30N 22°17' E 115°20'5 9.3
2017-Nov-17 12:00N 22°18' E 115°25'1410.1
2017-Nov-17 10:36N 22°22' E 115°40'2 9.9
2017-Nov-17 10:24N 22°23' E 115°41'60 9.4
2017-Nov-17 04:05N 22°45' E 116°41'  
2017-Nov-13 01:58N 31°22' E 121°35'0 0.1
2017-Nov-13 01:28N 31°23' E 121°35'0 0.0
2017-Nov-13 00:58N 31°23' E 121°35'0 0.0
2017-Nov-13 00:28N 31°23' E 121°35'0 0.0
2017-Nov-12 23:58N 31°23' E 121°35'0 0.0
2017-Nov-12 23:28N 31°23' E 121°35'0 0.0
2017-Nov-12 22:58N 31°23' E 121°35'0 0.0
2017-Nov-12 22:28N 31°23' E 121°35'0 0.0
2017-Nov-12 21:58N 31°23' E 121°35'0 0.0
2017-Nov-12 21:28N 31°22' E 121°35'0 0.0
2017-Nov-12 20:58N 31°23' E 121°35'0 0.0
2017-Nov-12 20:28N 31°22' E 121°35'0 0.0
2017-Nov-12 19:58N 31°23' E 121°35'0 0.0
2017-Nov-12 19:28N 31°22' E 121°35'0 0.0
2017-Nov-12 18:58N 31°23' E 121°35'0 0.0
2017-Nov-12 18:28N 31°23' E 121°35'0 0.0
2017-Nov-12 17:58N 31°22' E 121°35'0 0.0
2017-Nov-12 17:28N 31°23' E 121°35'0 0.0
2017-Nov-12 16:58N 31°23' E 121°35'0 0.0
2017-Nov-12 16:28N 31°23' E 121°35'0 0.0
2017-Nov-12 15:58N 31°23' E 121°35'0 0.0
2017-Nov-12 15:28N 31°23' E 121°35'0 0.0
2017-Nov-12 14:58N 31°22' E 121°35'0 0.0
2017-Nov-12 14:28N 31°23' E 121°35'0 0.0
2017-Nov-12 13:58N 31°22' E 121°35'0 0.0
2017-Nov-12 13:28N 31°22' E 121°35'0 0.0
2017-Nov-12 12:58N 31°23' E 121°35'0 0.0
2017-Nov-12 12:28N 31°23' E 121°35'0 0.0
2017-Nov-12 11:58N 31°23' E 121°35'0 0.0
2017-Nov-12 11:30N 31°23' E 121°35'1 1.1
2017-Nov-12 11:00N 31°23' E 121°35'4 8.3
2017-Nov-12 10:30N 31°21' E 121°40'5 9.4
2017-Nov-12 10:00N 31°19' E 121°44'611.1
2017-Nov-12 09:30N 31°17' E 121°50'510.3
2017-Nov-12 09:00N 31°15' E 121°56'510.1
2017-Nov-12 08:30N 31°14' E 122°02'4 8.8
2017-Nov-12 08:00N 31°13' E 122°07'510.6
2017-Nov-12 07:30N 31°10' E 122°12'5 9.5
2017-Nov-12 07:00N 31°07' E 122°17'4 8.0
2017-Nov-12 06:30N 31°06' E 122°21'42011.1
2017-Nov-10 16:38N 24°37' E 119°24'215.3
2017-Nov-10 16:30N 24°35' E 119°22'2815.2
2017-Nov-10 14:39N 24°18' E 118°58'214.4
2017-Nov-10 14:30N 24°16' E 118°56'914.6
2017-Nov-10 13:53N 24°11' E 118°49'1014.6
2017-Nov-10 13:12N 24°04' E 118°40'314.3
2017-Nov-10 13:00N 24°02' E 118°38'714.2
2017-Nov-10 12:30N 23°58' E 118°32'714.3
2017-Nov-10 12:00N 23°54' E 118°26'17714.2
2017-Nov-09 23:35N 22°21' E 115°42'112.7
2017-Nov-09 23:30N 22°21' E 115°41'712.3
2017-Nov-09 22:56N 22°18' E 115°34'612.3
2017-Nov-09 22:26N 22°16' E 115°27'612.4
2017-Nov-09 21:59N 22°15' E 115°22'612.4
2017-Nov-09 21:28N 22°14' E 115°15'612.6
2017-Nov-09 21:00N 22°13' E 115°09'612.6
2017-Nov-09 20:30N 22°11' E 115°02'612.5
2017-Nov-09 20:00N 22°09' E 114°55'613.0
2017-Nov-09 19:30N 22°08' E 114°49'612.5
2017-Nov-09 19:00N 22°07' E 114°42'612.7
2017-Nov-09 18:30N 22°07' E 114°35'612.7
2017-Nov-09 18:00N 22°07' E 114°28'712.8
2017-Nov-09 17:30N 22°07' E 114°21'11 9.8
2017-Nov-09 16:22N 22°12' E 114°11'410.9
2017-Nov-09 16:00N 22°14' E 114°08'510.0
2017-Nov-09 15:30N 22°19' E 114°07'1 2.2
2017-Nov-09 15:00N 22°20' E 114°08'0 0.0
2017-Nov-09 14:30N 22°20' E 114°08'0 0.0
2017-Nov-09 13:51N 22°20' E 114°08'0 0.0
2017-Nov-09 13:15N 22°20' E 114°08'0 0.0
2017-Nov-09 12:57N 22°20' E 114°08'0 0.0
2017-Nov-09 12:27N 22°20' E 114°08'0 0.0
2017-Nov-09 11:57N 22°20' E 114°08'0 0.0
2017-Nov-09 11:27N 22°20' E 114°08'0 0.0
2017-Nov-09 10:57N 22°20' E 114°08'0 0.0
2017-Nov-09 10:27N 22°20' E 114°08'0 0.0
2017-Nov-09 09:45N 22°20' E 114°08'0 0.0
2017-Nov-09 09:27N 22°20' E 114°08'0 0.0
2017-Nov-09 08:57N 22°20' E 114°08'0 0.0
2017-Nov-09 08:21N 22°20' E 114°08'0 0.0
2017-Nov-09 07:15N 22°20' E 114°08'0 0.0
2017-Nov-09 06:57N 22°20' E 114°08'0 0.0
2017-Nov-09 05:39N 22°20' E 114°08'0 0.0
2017-Nov-09 05:27N 22°20' E 114°08'0 0.0
2017-Nov-09 05:00N 22°20' E 114°08'2 4.9
2017-Nov-09 04:30N 22°18' E 114°06'611.8
2017-Nov-09 04:00N 22°14' E 114°09'3 6.3
2017-Nov-09 03:30N 22°11' E 114°12'3 6.4
2017-Nov-09 03:00N 22°09' E 114°14'4 6.7
2017-Nov-09 02:28N 22°08' E 114°18'3 5.6
2017-Nov-09 02:00N 22°08' E 114°20'4 8.1
2017-Nov-09 01:30N 22°05' E 114°23'510.0
2017-Nov-09 01:00N 21°60' E 114°24'510.9
2017-Nov-09 00:30N 21°54' E 114°23'816.7
2017-Nov-09 00:00N 21°46' E 114°22'  
Track history (hours):
 
Tides and Currents Weather Stations Pressure Air Temp Water Temp Dewpoint Dewpoint Depression Visibility Wind Speed Wind Dir Waves Ship Positions

Ever Ursula

Last reported at 2017-Nov-18 15:40 UTC. Time now 2017-Nov-21 19:32 UTC.
Position N 21°47' E 114°17'.

Type: Ship (hazmat cat D). MMSI: 357737000.

Date/timePositionNaut miles runAvg speedWind from/ knotsBaromVisibWave heightAir tempDewpointWater temp
2017-Nov-18 15:40N 21°47' E 114°17'214.3
2017-Nov-18 15:30N 21°49' E 114°17'714.3
2017-Nov-18 15:00N 21°56' E 114°20'714.5
2017-Nov-18 14:30N 22°02' E 114°24'611.7
2017-Nov-18 14:00N 22°06' E 114°20'611.6
2017-Nov-18 13:29N 22°07' E 114°13'611.2
2017-Nov-18 12:58N 22°12' E 114°10'510.3
2017-Nov-18 12:30N 22°15' E 114°07'711.9
2017-Nov-18 11:55N 22°21' E 114°03'611.8
2017-Nov-18 11:26N 22°21' E 113°58'4 9.8
2017-Nov-18 11:00N 22°23' E 113°54'2 4.9
2017-Nov-18 10:30N 22°25' E 113°53'2 3.3
2017-Nov-18 10:00N 22°27' E 113°54'0 0.2
2017-Nov-18 09:30N 22°27' E 113°53'0 0.0
2017-Nov-18 09:00N 22°27' E 113°53'0 0.0
2017-Nov-18 08:29N 22°27' E 113°53'0 0.0
2017-Nov-18 07:59N 22°27' E 113°53'0 0.0
2017-Nov-18 07:29N 22°27' E 113°53'0 0.0
2017-Nov-18 06:59N 22°27' E 113°53'0 0.0
2017-Nov-18 06:29N 22°27' E 113°53'0 0.0
2017-Nov-18 05:59N 22°27' E 113°53'0 0.0
2017-Nov-18 05:29N 22°27' E 113°53'0 0.0
2017-Nov-18 04:59N 22°27' E 113°53'0 0.0
2017-Nov-18 04:29N 22°27' E 113°53'0 0.0
2017-Nov-18 03:59N 22°27' E 113°53'0 0.0
2017-Nov-18 03:29N 22°27' E 113°53'0 0.0
2017-Nov-18 02:59N 22°27' E 113°53'0 0.0
2017-Nov-18 02:29N 22°27' E 113°53'0 0.0
2017-Nov-18 01:59N 22°27' E 113°53'0 0.0
2017-Nov-18 01:29N 22°27' E 113°53'0 0.0
2017-Nov-18 00:59N 22°27' E 113°53'0 0.0
2017-Nov-18 00:29N 22°27' E 113°53'0 0.0
2017-Nov-17 23:59N 22°27' E 113°53'0 0.0
2017-Nov-17 23:29N 22°27' E 113°53'0 0.3
2017-Nov-17 23:00N 22°27' E 113°53'3 5.9
2017-Nov-17 22:30N 22°24' E 113°54'4 8.3
2017-Nov-17 22:00N 22°21' E 113°57'611.6
2017-Nov-17 21:29N 22°21' E 114°03'611.2
2017-Nov-17 20:58N 22°16' E 114°07'710.2
2017-Nov-17 20:18N 22°11' E 114°11'2 7.8
2017-Nov-17 20:00N 22°10' E 114°13'3 5.9
2017-Nov-17 19:30N 22°09' E 114°16'3 6.7
2017-Nov-17 18:59N 22°08' E 114°20'4 9.0
2017-Nov-17 18:30N 22°08' E 114°25'4 8.7
2017-Nov-17 18:00N 22°08' E 114°29'4 9.0
2017-Nov-17 17:30N 22°08' E 114°34'4 8.9
2017-Nov-17 17:00N 22°07' E 114°39'4 8.8
2017-Nov-17 16:30N 22°07' E 114°44'4 8.9
2017-Nov-17 16:00N 22°08' E 114°48'4 8.7
2017-Nov-17 15:30N 22°09' E 114°53'4 8.6
2017-Nov-17 14:59N 22°10' E 114°57'4 8.6
2017-Nov-17 14:30N 22°11' E 115°02'4 8.6
2017-Nov-17 14:00N 22°12' E 115°06'4 8.8
2017-Nov-17 13:30N 22°14' E 115°11'4 8.9
2017-Nov-17 13:00N 22°16' E 115°15'5 9.1
2017-Nov-17 12:30N 22°17' E 115°20'5 9.3
2017-Nov-17 12:00N 22°18' E 115°25'1410.1
2017-Nov-17 10:36N 22°22' E 115°40'2 9.9
2017-Nov-17 10:24N 22°23' E 115°41'60 9.4
2017-Nov-17 04:05N 22°45' E 116°41'  
2017-Nov-13 01:58N 31°22' E 121°35'0 0.1
2017-Nov-13 01:28N 31°23' E 121°35'0 0.0
2017-Nov-13 00:58N 31°23' E 121°35'0 0.0
2017-Nov-13 00:28N 31°23' E 121°35'0 0.0
2017-Nov-12 23:58N 31°23' E 121°35'0 0.0
2017-Nov-12 23:28N 31°23' E 121°35'0 0.0
2017-Nov-12 22:58N 31°23' E 121°35'0 0.0
2017-Nov-12 22:28N 31°23' E 121°35'0 0.0
2017-Nov-12 21:58N 31°23' E 121°35'0 0.0
2017-Nov-12 21:28N 31°22' E 121°35'0 0.0
2017-Nov-12 20:58N 31°23' E 121°35'0 0.0
2017-Nov-12 20:28N 31°22' E 121°35'0 0.0
2017-Nov-12 19:58N 31°23' E 121°35'0 0.0
2017-Nov-12 19:28N 31°22' E 121°35'0 0.0
2017-Nov-12 18:58N 31°23' E 121°35'0 0.0
2017-Nov-12 18:28N 31°23' E 121°35'0 0.0
2017-Nov-12 17:58N 31°22' E 121°35'0 0.0
2017-Nov-12 17:28N 31°23' E 121°35'0 0.0
2017-Nov-12 16:58N 31°23' E 121°35'0 0.0
2017-Nov-12 16:28N 31°23' E 121°35'0 0.0
2017-Nov-12 15:58N 31°23' E 121°35'0 0.0
2017-Nov-12 15:28N 31°23' E 121°35'0 0.0
2017-Nov-12 14:58N 31°22' E 121°35'0 0.0
2017-Nov-12 14:28N 31°23' E 121°35'0 0.0
2017-Nov-12 13:58N 31°22' E 121°35'0 0.0
2017-Nov-12 13:28N 31°22' E 121°35'0 0.0
2017-Nov-12 12:58N 31°23' E 121°35'0 0.0
2017-Nov-12 12:28N 31°23' E 121°35'0 0.0
2017-Nov-12 11:58N 31°23' E 121°35'0 0.0
2017-Nov-12 11:30N 31°23' E 121°35'1 1.1
2017-Nov-12 11:00N 31°23' E 121°35'4 8.3
2017-Nov-12 10:30N 31°21' E 121°40'5 9.4
2017-Nov-12 10:00N 31°19' E 121°44'611.1
2017-Nov-12 09:30N 31°17' E 121°50'510.3
2017-Nov-12 09:00N 31°15' E 121°56'510.1
2017-Nov-12 08:30N 31°14' E 122°02'4 8.8
2017-Nov-12 08:00N 31°13' E 122°07'510.6
2017-Nov-12 07:30N 31°10' E 122°12'5 9.5
2017-Nov-12 07:00N 31°07' E 122°17'4 8.0
2017-Nov-12 06:30N 31°06' E 122°21'42011.1
2017-Nov-10 16:38N 24°37' E 119°24'215.3
2017-Nov-10 16:30N 24°35' E 119°22'2815.2
2017-Nov-10 14:39N 24°18' E 118°58'214.4
2017-Nov-10 14:30N 24°16' E 118°56'914.6
2017-Nov-10 13:53N 24°11' E 118°49'1014.6
2017-Nov-10 13:12N 24°04' E 118°40'314.3
2017-Nov-10 13:00N 24°02' E 118°38'714.2
2017-Nov-10 12:30N 23°58' E 118°32'714.3
2017-Nov-10 12:00N 23°54' E 118°26'17714.2
2017-Nov-09 23:35N 22°21' E 115°42'112.7
2017-Nov-09 23:30N 22°21' E 115°41'712.3
2017-Nov-09 22:56N 22°18' E 115°34'612.3
2017-Nov-09 22:26N 22°16' E 115°27'612.4
2017-Nov-09 21:59N 22°15' E 115°22'612.4
2017-Nov-09 21:28N 22°14' E 115°15'612.6
2017-Nov-09 21:00N 22°13' E 115°09'612.6
2017-Nov-09 20:30N 22°11' E 115°02'612.5
2017-Nov-09 20:00N 22°09' E 114°55'613.0
2017-Nov-09 19:30N 22°08' E 114°49'612.5
2017-Nov-09 19:00N 22°07' E 114°42'612.7
2017-Nov-09 18:30N 22°07' E 114°35'612.7
2017-Nov-09 18:00N 22°07' E 114°28'712.8
2017-Nov-09 17:30N 22°07' E 114°21'11 9.8
2017-Nov-09 16:22N 22°12' E 114°11'410.9
2017-Nov-09 16:00N 22°14' E 114°08'510.0
2017-Nov-09 15:30N 22°19' E 114°07'1 2.2
2017-Nov-09 15:00N 22°20' E 114°08'0 0.0
2017-Nov-09 14:30N 22°20' E 114°08'0 0.0
2017-Nov-09 13:51N 22°20' E 114°08'0 0.0
2017-Nov-09 13:15N 22°20' E 114°08'0 0.0
2017-Nov-09 12:57N 22°20' E 114°08'0 0.0
2017-Nov-09 12:27N 22°20' E 114°08'0 0.0
2017-Nov-09 11:57N 22°20' E 114°08'0 0.0
2017-Nov-09 11:27N 22°20' E 114°08'0 0.0
2017-Nov-09 10:57N 22°20' E 114°08'0 0.0
2017-Nov-09 10:27N 22°20' E 114°08'0 0.0
2017-Nov-09 09:45N 22°20' E 114°08'0 0.0
2017-Nov-09 09:27N 22°20' E 114°08'0 0.0
2017-Nov-09 08:57N 22°20' E 114°08'0 0.0
2017-Nov-09 08:21N 22°20' E 114°08'0 0.0
2017-Nov-09 07:15N 22°20' E 114°08'0 0.0
2017-Nov-09 06:57N 22°20' E 114°08'0 0.0
2017-Nov-09 05:39N 22°20' E 114°08'0 0.0
2017-Nov-09 05:27N 22°20' E 114°08'0 0.0
2017-Nov-09 05:00N 22°20' E 114°08'2 4.9
2017-Nov-09 04:30N 22°18' E 114°06'611.8
2017-Nov-09 04:00N 22°14' E 114°09'3 6.3
2017-Nov-09 03:30N 22°11' E 114°12'3 6.4
2017-Nov-09 03:00N 22°09' E 114°14'4 6.7
2017-Nov-09 02:28N 22°08' E 114°18'3 5.6
2017-Nov-09 02:00N 22°08' E 114°20'4 8.1
2017-Nov-09 01:30N 22°05' E 114°23'510.0
2017-Nov-09 01:00N 21°60' E 114°24'510.9
2017-Nov-09 00:30N 21°54' E 114°23'816.7
2017-Nov-09 00:00N 21°46' E 114°22'  

Dump ship's entire track history